Portada
METAR-TAF:

METAR-TAF

Aeroports :

Asyut, Egipte

latitud: 27-03N, longitud: 031-01E, altitud: 226 m

Observació

L'informe es va fer fa 39 minuts, a les 17:00 UTC
Vent 14 kt del Nord
Temperatura 18°C
Humitat 64%
Pressió 1019 hPa
Visibilitat 10 km o més
sense núvols per sota de 1500 mi sense presència de cumulonimbus.

METAR: HEAT 041700Z 36014KT CAVOK 18/11 Q1019 NOSIG

Hora: 19:39 (17:39 UTC)

Pronòstic

L'informe es va fer fa 39 minuts, a les 17:00 UTC
Pronòstic vàlid del 04 a les 18 UTC al 05 a les 24 UTC
Vent 13 kt del Nord
Visibilitat 10 km o més
sense núvols per sota de 1500 mi sense presència de cumulonimbus.

TAF: HEAT 041700Z 0418/0524 35013KT CAVOK

Observacions i pronòstics meteorològics de més de 4000 aeroports (METAR i TAF).

Les estacions disponibles són els punts grocs i vermells al mapa.

Posi el ratolí al punt desitjat per veure el nom de l'estació.

Feu clic per veure les observacions i els pronòstics meteorològics.

Per canviar el mapa: feu clic els botons verds amb una creu de color negre per apropar; al botó verd amb un guió per allunyar la imatge; o en les fletxes verdes per a mapes adjacents.


METAR-TAF: